Time;durP1;ratioP1;P1;durP2;ratioP2;P2;SDS_P1;SDS_P2;PMS_P1;PMS_P2;Temp;Humidity;BMP_temperature;BMP_pressure;BME280_temperature;BME280_humidity;BME280_pressure;Samples;Min_cycle;Max_cycle;Signal;HPM_P1;HPM_P2
2022/09/19 00:01:06;;;;;;;1.85;0.47;;;;;;;;;;5082019;28;20211;-70
2022/09/19 00:03:32;;;;;;;0.20;0.20;;;;;;;;;;5081723;28;20496;-70
2022/09/19 00:05:59;;;;;;;0.30;0.30;;;;;;;;;;5082193;28;20216;-70
2022/09/19 00:08:25;;;;;;;0.30;0.30;;;;;;;;;;5082021;28;20219;-70
2022/09/19 00:10:51;;;;;;;0.40;0.40;;;;;;;;;;5081878;28;20188;-70
2022/09/19 00:13:18;;;;;;;0.28;0.28;;;;;;;;;;5081945;28;20496;-70
2022/09/19 00:15:47;;;;;;;1.10;0.20;;;;;;;;;;5081837;28;20211;-70
2022/09/19 00:18:14;;;;;;;0.32;0.22;;;;;;;;;;5081644;28;20208;-70
2022/09/19 00:20:41;;;;;;;0.52;0.20;;;;;;;;;;5082037;28;20261;-70
2022/09/19 00:25:57;;;;;;;0.30;0.30;;;;;;;;;;5081674;28;20215;-70
2022/09/19 00:28:27;;;;;;;0.20;0.20;;;;;;;;;;5082215;28;20260;-69
2022/09/19 00:30:53;;;;;;;1.27;0.32;;;;;;;;;;5086112;28;20264;-69
2022/09/19 00:33:21;;;;;;;0.20;0.20;;;;;;;;;;5085895;28;20397;-69
2022/09/19 00:35:49;;;;;;;0.80;0.40;;;;;;;;;;5085890;28;20201;-68
2022/09/19 00:38:15;;;;;;;0.28;0.28;;;;;;;;;;5085696;28;20201;-68
2022/09/19 00:40:41;;;;;;;0.32;0.32;;;;;;;;;;5085625;28;20200;-68
2022/09/19 00:43:10;;;;;;;0.30;0.30;;;;;;;;;;5085285;28;20550;-69
2022/09/19 00:45:36;;;;;;;0.90;0.40;;;;;;;;;;5085789;28;20204;-69
2022/09/19 00:48:02;;;;;;;0.20;0.20;;;;;;;;;;5085602;28;20196;-69
2022/09/19 00:50:30;;;;;;;0.40;0.40;;;;;;;;;;5085396;28;20220;-69
2022/09/19 00:53:00;;;;;;;0.40;0.38;;;;;;;;;;5085320;28;20196;-69
2022/09/19 00:55:27;;;;;;;0.30;0.30;;;;;;;;;;5085391;28;20200;-69
2022/09/19 00:57:56;;;;;;;1.17;0.30;;;;;;;;;;5085378;28;20423;-69
2022/09/19 01:00:23;;;;;;;0.70;0.30;;;;;;;;;;5085635;28;20500;-69
2022/09/19 01:02:51;;;;;;;0.55;0.30;;;;;;;;;;5085084;28;20192;-69
2022/09/19 01:05:17;;;;;;;0.20;0.20;;;;;;;;;;5085197;28;20239;-69
2022/09/19 01:08:01;;;;;;;0.20;0.20;;;;;;;;;;5085324;28;20208;-69
2022/09/19 01:10:36;;;;;;;0.40;0.30;;;;;;;;;;5084984;28;20679;-69
2022/09/19 01:13:09;;;;;;;0.30;0.30;;;;;;;;;;5085035;28;20390;-69
2022/09/19 01:15:39;;;;;;;0.30;0.30;;;;;;;;;;5085232;28;20196;-69
2022/09/19 01:18:06;;;;;;;0.30;0.30;;;;;;;;;;5085062;28;20197;-69
2022/09/19 01:20:56;;;;;;;0.20;0.20;;;;;;;;;;5084731;28;20193;-69
2022/09/19 01:23:44;;;;;;;0.20;0.20;;;;;;;;;;5084670;28;20242;-69
2022/09/19 01:26:20;;;;;;;0.20;0.20;;;;;;;;;;5084739;28;20437;-69
2022/09/19 01:28:51;;;;;;;1.27;0.30;;;;;;;;;;5084853;28;20204;-69
2022/09/19 01:31:21;;;;;;;0.30;0.30;;;;;;;;;;5084013;28;20197;-69
2022/09/19 01:33:50;;;;;;;0.25;0.20;;;;;;;;;;5084496;28;20228;-69
2022/09/19 01:36:17;;;;;;;0.30;0.30;;;;;;;;;;5084596;28;20200;-67
2022/09/19 01:38:45;;;;;;;0.40;0.40;;;;;;;;;;5084464;28;20200;-69
2022/09/19 01:41:12;;;;;;;0.30;0.30;;;;;;;;;;5084368;28;20196;-69
2022/09/19 01:43:38;;;;;;;2.40;0.30;;;;;;;;;;5084237;28;20196;-69
2022/09/19 01:46:09;;;;;;;0.30;0.30;;;;;;;;;;5084395;28;20380;-69
2022/09/19 01:48:44;;;;;;;0.30;0.30;;;;;;;;;;5084830;28;20235;-69
2022/09/19 01:51:17;;;;;;;1.45;0.30;;;;;;;;;;5084197;28;20254;-69
2022/09/19 01:53:52;;;;;;;0.22;0.22;;;;;;;;;;5084459;28;20208;-69
2022/09/19 01:56:24;;;;;;;1.38;0.38;;;;;;;;;;5084383;28;20196;-69
2022/09/19 01:58:56;;;;;;;0.30;0.30;;;;;;;;;;5084404;28;20468;-69
2022/09/19 02:01:26;;;;;;;0.35;0.35;;;;;;;;;;5083911;28;20256;-70
2022/09/19 02:03:55;;;;;;;0.57;0.57;;;;;;;;;;5083822;28;20570;-69
2022/09/19 02:06:25;;;;;;;1.80;0.30;;;;;;;;;;5083980;28;20220;-69
2022/09/19 02:08:54;;;;;;;0.30;0.30;;;;;;;;;;5083968;28;20211;-70
2022/09/19 02:11:22;;;;;;;0.98;0.30;;;;;;;;;;5083900;28;20193;-69
2022/09/19 02:13:51;;;;;;;0.50;0.50;;;;;;;;;;5083799;28;20267;-69
2022/09/19 02:16:19;;;;;;;0.40;0.40;;;;;;;;;;5083623;28;20196;-69
2022/09/19 02:18:51;;;;;;;0.30;0.30;;;;;;;;;;5083930;28;20189;-69
2022/09/19 02:21:20;;;;;;;0.88;0.32;;;;;;;;;;5083884;28;20193;-68
2022/09/19 02:23:48;;;;;;;0.40;0.40;;;;;;;;;;5083514;28;20200;-69
2022/09/19 02:26:20;;;;;;;1.25;0.20;;;;;;;;;;5083453;28;20212;-69
2022/09/19 02:28:48;;;;;;;0.43;0.35;;;;;;;;;;5083507;28;20197;-69
2022/09/19 02:31:15;;;;;;;0.40;0.40;;;;;;;;;;5083628;28;20224;-69
2022/09/19 02:33:44;;;;;;;1.65;0.32;;;;;;;;;;5083357;28;20222;-69
2022/09/19 02:36:13;;;;;;;0.30;0.30;;;;;;;;;;5083491;28;20196;-69
2022/09/19 02:38:46;;;;;;;0.40;0.40;;;;;;;;;;5083491;28;20516;-69
2022/09/19 02:41:19;;;;;;;0.30;0.30;;;;;;;;;;5083233;28;20259;-69
2022/09/19 02:43:48;;;;;;;0.25;0.25;;;;;;;;;;5083306;28;20204;-69
2022/09/19 02:46:18;;;;;;;0.30;0.30;;;;;;;;;;5083549;28;20196;-68
2022/09/19 02:48:50;;;;;;;0.85;0.30;;;;;;;;;;5083253;28;20197;-68
2022/09/19 02:51:21;;;;;;;0.40;0.40;;;;;;;;;;5082472;28;20337;-68
2022/09/19 02:53:48;;;;;;;0.40;0.40;;;;;;;;;;5083025;28;20421;-68
2022/09/19 02:56:16;;;;;;;0.40;0.40;;;;;;;;;;5083151;28;20236;-69
2022/09/19 02:58:44;;;;;;;0.30;0.30;;;;;;;;;;5083152;28;20196;-68
2022/09/19 03:01:13;;;;;;;0.40;0.40;;;;;;;;;;5083026;28;20193;-69
2022/09/19 03:06:32;;;;;;;0.40;0.40;;;;;;;;;;5082836;28;20219;-68
2022/09/19 03:08:59;;;;;;;1.25;0.50;;;;;;;;;;5082795;28;20504;-67
2022/09/19 03:11:26;;;;;;;2.35;0.50;;;;;;;;;;5082744;28;20594;-67
2022/09/19 03:13:59;;;;;;;0.50;0.40;;;;;;;;;;5082545;28;20234;-69
2022/09/19 03:16:27;;;;;;;1.63;0.50;;;;;;;;;;5082687;28;20234;-67
2022/09/19 03:18:55;;;;;;;0.50;0.50;;;;;;;;;;5082451;28;20204;-68
2022/09/19 03:21:22;;;;;;;4.57;0.60;;;;;;;;;;5082959;28;20215;-68
2022/09/19 03:23:51;;;;;;;3.05;0.50;;;;;;;;;;5082374;28;20242;-69
2022/09/19 03:26:19;;;;;;;1.67;0.60;;;;;;;;;;5082495;28;20569;-69
2022/09/19 03:28:46;;;;;;;2.88;0.57;;;;;;;;;;5082432;28;20196;-69
2022/09/19 03:31:12;;;;;;;1.05;0.70;;;;;;;;;;5082266;28;20458;-69
2022/09/19 03:33:39;;;;;;;0.50;0.50;;;;;;;;;;5082322;28;20208;-69
2022/09/19 03:36:07;;;;;;;0.80;0.80;;;;;;;;;;5082501;28;20613;-69
2022/09/19 03:38:34;;;;;;;0.55;0.40;;;;;;;;;;5082285;28;20196;-68
2022/09/19 03:41:01;;;;;;;0.70;0.70;;;;;;;;;;5082331;28;20200;-68
2022/09/19 03:43:29;;;;;;;2.83;0.80;;;;;;;;;;5082052;28;20213;-67
2022/09/19 03:45:55;;;;;;;1.23;0.70;;;;;;;;;;5082016;28;20196;-68
2022/09/19 03:48:22;;;;;;;2.30;1.13;;;;;;;;;;5082125;28;20209;-69
2022/09/19 03:50:48;;;;;;;1.65;0.73;;;;;;;;;;5081912;28;20224;-69
2022/09/19 03:53:15;;;;;;;3.92;0.85;;;;;;;;;;5081934;28;20203;-69
2022/09/19 03:55:41;;;;;;;3.15;0.70;;;;;;;;;;5082114;28;20204;-69
2022/09/19 03:58:10;;;;;;;2.47;0.70;;;;;;;;;;5082086;28;20203;-69
2022/09/19 04:00:37;;;;;;;0.90;0.60;;;;;;;;;;5081951;28;20192;-69
2022/09/19 04:03:03;;;;;;;2.15;0.60;;;;;;;;;;5081949;28;20242;-69
2022/09/19 04:05:30;;;;;;;2.58;0.82;;;;;;;;;;5082017;28;20589;-69
2022/09/19 04:07:57;;;;;;;7.05;1.00;;;;;;;;;;5082069;28;20302;-69
2022/09/19 04:10:23;;;;;;;1.75;0.70;;;;;;;;;;5081848;28;20216;-67
2022/09/19 04:12:50;;;;;;;2.40;0.90;;;;;;;;;;5081689;28;20504;-70
2022/09/19 04:15:17;;;;;;;6.05;0.80;;;;;;;;;;5082132;28;20514;-69
2022/09/19 04:17:44;;;;;;;7.18;0.82;;;;;;;;;;5082101;28;20204;-70
2022/09/19 04:20:10;;;;;;;2.58;0.70;;;;;;;;;;5081939;28;20238;-70
2022/09/19 04:22:37;;;;;;;6.70;1.10;;;;;;;;;;5081569;28;20196;-70
2022/09/19 04:25:04;;;;;;;6.70;0.95;;;;;;;;;;5081728;28;20242;-70
2022/09/19 04:27:30;;;;;;;6.32;1.00;;;;;;;;;;5082128;28;20204;-69
2022/09/19 04:29:57;;;;;;;5.55;0.98;;;;;;;;;;5081969;28;20226;-69
2022/09/19 04:32:24;;;;;;;6.00;1.15;;;;;;;;;;5081677;28;20204;-69
2022/09/19 04:34:55;;;;;;;7.05;1.70;;;;;;;;;;5081965;28;20364;-70
2022/09/19 04:37:22;;;;;;;2.92;0.90;;;;;;;;;;5081863;28;20196;-70
2022/09/19 04:39:48;;;;;;;2.92;0.93;;;;;;;;;;5081774;28;20196;-70
2022/09/19 04:42:15;;;;;;;4.85;1.05;;;;;;;;;;5081390;28;20227;-69
2022/09/19 04:44:41;;;;;;;7.00;0.82;;;;;;;;;;5081471;28;20200;-70
2022/09/19 04:47:07;;;;;;;5.65;1.00;;;;;;;;;;5081748;28;20201;-70
2022/09/19 04:49:36;;;;;;;3.28;0.70;;;;;;;;;;5081487;28;20212;-70
2022/09/19 04:52:02;;;;;;;8.35;1.13;;;;;;;;;;5081437;28;20470;-70
2022/09/19 04:54:36;;;;;;;4.15;1.10;;;;;;;;;;5081289;28;20200;-70
2022/09/19 04:57:02;;;;;;;2.00;1.00;;;;;;;;;;5081708;28;20218;-70
2022/09/19 04:59:28;;;;;;;5.38;1.00;;;;;;;;;;5081498;28;20196;-70
2022/09/19 05:01:54;;;;;;;5.47;1.10;;;;;;;;;;5081359;28;20204;-70
2022/09/19 05:04:22;;;;;;;7.13;1.10;;;;;;;;;;5081258;28;20258;-70
2022/09/19 05:06:49;;;;;;;2.08;0.80;;;;;;;;;;5081499;28;20204;-70
2022/09/19 05:09:16;;;;;;;3.88;1.08;;;;;;;;;;5081350;28;20430;-71
2022/09/19 05:11:43;;;;;;;2.30;1.27;;;;;;;;;;5081672;28;20412;-71
2022/09/19 05:14:09;;;;;;;6.25;1.27;;;;;;;;;;5081611;28;20196;-70
2022/09/19 05:16:36;;;;;;;3.53;0.93;;;;;;;;;;5084976;28;20196;-70
2022/09/19 05:19:02;;;;;;;6.18;1.58;;;;;;;;;;5084812;28;20204;-70
2022/09/19 05:21:28;;;;;;;3.50;1.10;;;;;;;;;;5084929;28;20196;-70
2022/09/19 05:23:56;;;;;;;6.93;1.10;;;;;;;;;;5084488;28;20262;-70
2022/09/19 05:26:22;;;;;;;5.20;1.00;;;;;;;;;;5084834;28;20204;-71
2022/09/19 05:28:50;;;;;;;2.50;1.05;;;;;;;;;;5084887;28;20267;-70
2022/09/19 05:31:18;;;;;;;7.72;1.52;;;;;;;;;;5084604;28;20279;-70
2022/09/19 05:33:46;;;;;;;5.68;1.17;;;;;;;;;;5084494;28;20216;-70
2022/09/19 05:36:13;;;;;;;3.92;1.15;;;;;;;;;;5084563;28;20500;-70
2022/09/19 05:38:39;;;;;;;3.25;1.17;;;;;;;;;;5084619;28;20200;-70
2022/09/19 05:41:07;;;;;;;7.72;1.40;;;;;;;;;;5084703;28;20303;-70
2022/09/19 05:43:33;;;;;;;2.95;0.93;;;;;;;;;;5084465;28;20294;-70
2022/09/19 05:46:00;;;;;;;4.10;1.13;;;;;;;;;;5084494;28;20241;-70
2022/09/19 05:48:27;;;;;;;4.85;1.13;;;;;;;;;;5084385;28;20389;-70
2022/09/19 05:50:54;;;;;;;3.55;0.80;;;;;;;;;;5084170;28;20547;-70
2022/09/19 05:56:07;;;;;;;7.95;1.08;;;;;;;;;;5084269;28;20252;-70
2022/09/19 05:58:35;;;;;;;3.13;1.00;;;;;;;;;;5084354;28;20200;-70
2022/09/19 06:01:03;;;;;;;7.53;1.40;;;;;;;;;;5084175;28;20272;-70
2022/09/19 06:03:29;;;;;;;4.03;1.10;;;;;;;;;;5083926;28;20197;-70
2022/09/19 06:05:56;;;;;;;4.07;1.20;;;;;;;;;;5084210;28;20397;-70
2022/09/19 06:08:22;;;;;;;4.72;1.08;;;;;;;;;;5084281;28;20558;-70
2022/09/19 06:10:49;;;;;;;2.78;1.20;;;;;;;;;;5084006;28;20224;-70
2022/09/19 06:13:18;;;;;;;5.80;2.45;;;;;;;;;;5083966;28;20196;-70
2022/09/19 06:15:44;;;;;;;4.50;1.13;;;;;;;;;;5083898;28;20422;-70
2022/09/19 06:18:11;;;;;;;8.60;1.27;;;;;;;;;;5084176;28;20250;-70
2022/09/19 06:20:38;;;;;;;6.78;1.55;;;;;;;;;;5083911;28;20205;-70
2022/09/19 06:23:06;;;;;;;8.20;1.17;;;;;;;;;;5083566;28;20211;-70
2022/09/19 06:25:33;;;;;;;4.22;1.05;;;;;;;;;;5083447;28;20450;-71
2022/09/19 06:28:00;;;;;;;6.40;1.20;;;;;;;;;;5083044;28;20234;-70
2022/09/19 06:30:27;;;;;;;8.18;1.50;;;;;;;;;;5083424;28;20203;-70
2022/09/19 06:32:54;;;;;;;3.22;1.73;;;;;;;;;;5083302;28;20218;-71
2022/09/19 06:35:21;;;;;;;4.72;1.38;;;;;;;;;;5083461;28;20196;-70
2022/09/19 06:37:48;;;;;;;6.72;1.58;;;;;;;;;;5083508;28;20496;-70
2022/09/19 06:40:15;;;;;;;3.83;1.30;;;;;;;;;;5083426;28;20203;-71
2022/09/19 06:42:41;;;;;;;6.80;1.20;;;;;;;;;;5083283;28;20199;-68
2022/09/19 06:45:09;;;;;;;4.25;1.20;;;;;;;;;;5083200;28;20196;-68
2022/09/19 06:47:37;;;;;;;2.78;1.02;;;;;;;;;;5083291;28;20208;-68
2022/09/19 06:50:03;;;;;;;8.57;1.38;;;;;;;;;;5083415;28;20504;-69
2022/09/19 06:52:30;;;;;;;5.05;1.48;;;;;;;;;;5083008;28;20606;-69
2022/09/19 06:54:58;;;;;;;9.65;1.33;;;;;;;;;;5083158;28;20528;-69
2022/09/19 06:57:24;;;;;;;5.38;1.42;;;;;;;;;;5083005;28;20578;-69
2022/09/19 06:59:50;;;;;;;9.45;1.90;;;;;;;;;;5083123;28;20204;-69
2022/09/19 07:02:17;;;;;;;5.65;1.10;;;;;;;;;;5083499;28;20218;-69
2022/09/19 07:04:44;;;;;;;6.45;1.40;;;;;;;;;;5085103;28;20551;-69
2022/09/19 07:07:10;;;;;;;9.38;2.05;;;;;;;;;;5083148;28;20196;-69
2022/09/19 07:09:37;;;;;;;8.82;1.58;;;;;;;;;;5082917;28;20257;-68
2022/09/19 07:12:03;;;;;;;8.40;1.45;;;;;;;;;;5082815;28;20456;-70
2022/09/19 07:14:29;;;;;;;8.73;1.85;;;;;;;;;;5082689;28;20211;-70
2022/09/19 07:16:57;;;;;;;5.40;1.38;;;;;;;;;;5082778;28;20234;-70
2022/09/19 07:19:23;;;;;;;7.82;2.22;;;;;;;;;;5082564;28;20234;-70
2022/09/19 07:21:53;;;;;;;12.65;1.88;;;;;;;;;;5082622;28;20192;-69
2022/09/19 07:24:20;;;;;;;8.38;1.83;;;;;;;;;;5082368;28;20197;-70
2022/09/19 07:26:46;;;;;;;10.20;1.63;;;;;;;;;;5082214;28;20235;-70
2022/09/19 07:29:12;;;;;;;9.07;1.75;;;;;;;;;;5082385;28;20196;-70
2022/09/19 07:31:38;;;;;;;9.13;1.88;;;;;;;;;;5082683;28;20216;-70
2022/09/19 07:34:05;;;;;;;6.38;1.50;;;;;;;;;;5082167;28;20200;-70
2022/09/19 07:36:31;;;;;;;5.45;1.73;;;;;;;;;;5082496;28;20362;-68
2022/09/19 07:38:59;;;;;;;4.70;1.83;;;;;;;;;;5082116;28;20503;-68
2022/09/19 07:41:25;;;;;;;14.15;1.95;;;;;;;;;;5082215;28;20508;-68
2022/09/19 07:43:51;;;;;;;9.02;1.85;;;;;;;;;;5082202;28;20218;-68
2022/09/19 07:46:18;;;;;;;7.72;1.92;;;;;;;;;;5082425;28;20422;-70
2022/09/19 07:48:47;;;;;;;12.30;2.10;;;;;;;;;;5082082;28;20203;-70
2022/09/19 07:51:14;;;;;;;10.55;1.63;;;;;;;;;;5082264;28;20212;-68
2022/09/19 07:53:40;;;;;;;7.35;1.50;;;;;;;;;;5082088;28;20267;-68
2022/09/19 07:56:10;;;;;;;6.47;1.77;;;;;;;;;;5082244;28;20242;-68
2022/09/19 07:58:39;;;;;;;9.77;2.28;;;;;;;;;;5082258;28;20196;-68
2022/09/19 08:01:06;;;;;;;4.07;1.40;;;;;;;;;;5082291;28;20200;-68
2022/09/19 08:03:32;;;;;;;9.85;1.95;;;;;;;;;;5082014;28;20200;-68
2022/09/19 08:05:59;;;;;;;9.50;1.50;;;;;;;;;;5082151;28;20216;-68
2022/09/19 08:08:26;;;;;;;6.95;1.52;;;;;;;;;;5082111;28;20232;-68
2022/09/19 08:10:54;;;;;;;11.00;1.85;;;;;;;;;;5082285;28;20200;-68
2022/09/19 08:13:22;;;;;;;9.60;1.20;;;;;;;;;;5082118;28;20203;-68
2022/09/19 08:15:48;;;;;;;8.90;2.03;;;;;;;;;;5082249;28;20203;-68
2022/09/19 08:18:16;;;;;;;9.77;1.95;;;;;;;;;;5082164;28;20197;-68
2022/09/19 08:20:42;;;;;;;5.75;1.48;;;;;;;;;;5081956;28;20197;-68
2022/09/19 08:23:09;;;;;;;13.32;1.88;;;;;;;;;;5081638;28;20207;-68
2022/09/19 08:25:37;;;;;;;7.07;1.80;;;;;;;;;;5081951;28;20196;-68
2022/09/19 08:28:04;;;;;;;7.53;1.65;;;;;;;;;;5081946;28;20248;-68
2022/09/19 08:30:33;;;;;;;8.32;1.77;;;;;;;;;;5082000;28;20203;-68
2022/09/19 08:33:01;;;;;;;10.40;1.83;;;;;;;;;;5081488;28;20227;-68
2022/09/19 08:35:29;;;;;;;11.82;1.60;;;;;;;;;;5081821;28;20415;-68
2022/09/19 08:37:56;;;;;;;6.50;1.80;;;;;;;;;;5082491;28;20511;-68
2022/09/19 08:40:25;;;;;;;9.38;1.95;;;;;;;;;;5082147;28;20197;-68
2022/09/19 08:42:57;;;;;;;8.68;1.77;;;;;;;;;;5081770;28;20238;-68
2022/09/19 08:45:28;;;;;;;5.65;1.77;;;;;;;;;;5081920;28;20196;-68
2022/09/19 08:47:56;;;;;;;9.50;1.98;;;;;;;;;;5081595;28;20272;-68
2022/09/19 08:50:24;;;;;;;9.23;1.60;;;;;;;;;;5083747;28;20196;-68
2022/09/19 08:52:53;;;;;;;7.60;1.80;;;;;;;;;;5085603;28;20265;-68
2022/09/19 08:55:21;;;;;;;11.30;2.25;;;;;;;;;;5085854;28;20503;-68
2022/09/19 08:57:50;;;;;;;7.57;1.58;;;;;;;;;;5085591;28;20549;-68
2022/09/19 09:00:18;;;;;;;11.00;2.00;;;;;;;;;;5085418;28;20211;-68
2022/09/19 09:02:47;;;;;;;7.53;1.77;;;;;;;;;;5085422;28;20369;-68
2022/09/19 09:05:16;;;;;;;8.65;2.10;;;;;;;;;;5085486;28;20442;-68
2022/09/19 09:07:50;;;;;;;11.13;1.65;;;;;;;;;;5085436;28;20219;-68
2022/09/19 09:10:25;;;;;;;6.22;1.55;;;;;;;;;;5085339;28;20500;-68
2022/09/19 09:12:55;;;;;;;7.40;2.00;;;;;;;;;;5084928;28;20216;-68
2022/09/19 09:15:24;;;;;;;5.80;1.55;;;;;;;;;;5085432;28;20222;-68
2022/09/19 09:17:57;;;;;;;7.85;1.55;;;;;;;;;;5085102;28;20278;-68
2022/09/19 09:20:36;;;;;;;7.13;2.35;;;;;;;;;;5085144;28;20234;-68
2022/09/19 09:23:06;;;;;;;5.03;1.70;;;;;;;;;;5084808;28;20238;-68
2022/09/19 09:25:33;;;;;;;14.10;1.92;;;;;;;;;;5084753;28;20197;-68
2022/09/19 09:28:02;;;;;;;7.22;1.75;;;;;;;;;;5085117;28;20197;-68
2022/09/19 09:30:29;;;;;;;7.70;1.58;;;;;;;;;;5084732;28;20450;-68
2022/09/19 09:32:58;;;;;;;5.68;1.80;;;;;;;;;;5084746;28;20401;-68
2022/09/19 09:35:29;;;;;;;7.35;1.70;;;;;;;;;;5084834;28;20203;-68
2022/09/19 09:38:02;;;;;;;9.27;1.90;;;;;;;;;;5084719;28;20200;-68
2022/09/19 09:43:23;;;;;;;4.53;1.50;;;;;;;;;;5084545;28;20214;-68
2022/09/19 09:45:51;;;;;;;8.50;2.00;;;;;;;;;;5084706;28;20411;-68
2022/09/19 09:48:20;;;;;;;5.82;1.83;;;;;;;;;;5084509;28;20234;-68
2022/09/19 09:50:50;;;;;;;7.40;1.63;;;;;;;;;;5084697;28;20227;-68
2022/09/19 09:53:23;;;;;;;10.07;2.08;;;;;;;;;;5084323;28;20579;-68
2022/09/19 09:58:46;;;;;;;9.75;2.35;;;;;;;;;;5084419;28;20223;-68
2022/09/19 10:04:03;;;;;;;6.97;1.52;;;;;;;;;;5084078;28;20195;-68
2022/09/19 10:06:31;;;;;;;9.75;1.45;;;;;;;;;;5084320;28;20270;-68
2022/09/19 10:09:01;;;;;;;5.10;1.60;;;;;;;;;;5084705;28;20197;-68
2022/09/19 10:11:34;;;;;;;4.55;1.50;;;;;;;;;;5084331;28;20196;-68
2022/09/19 10:14:01;;;;;;;7.25;1.63;;;;;;;;;;5084116;28;20270;-68
2022/09/19 10:16:28;;;;;;;6.72;2.08;;;;;;;;;;5084046;28;20432;-68
2022/09/19 10:18:57;;;;;;;6.30;1.50;;;;;;;;;;5084083;28;20200;-68
2022/09/19 10:21:24;;;;;;;5.18;1.63;;;;;;;;;;5084026;28;20196;-68
2022/09/19 10:23:50;;;;;;;5.45;1.52;;;;;;;;;;5083688;28;20197;-68
2022/09/19 10:26:26;;;;;;;6.28;2.08;;;;;;;;;;5084185;28;20205;-68
2022/09/19 10:28:59;;;;;;;9.65;3.85;;;;;;;;;;5084016;28;20372;-68
2022/09/19 10:31:31;;;;;;;6.43;1.73;;;;;;;;;;5083867;28;20334;-68
2022/09/19 10:34:05;;;;;;;5.70;2.38;;;;;;;;;;5083742;28;20497;-68
2022/09/19 10:36:33;;;;;;;7.60;3.10;;;;;;;;;;5084304;28;20229;-69
2022/09/19 10:39:00;;;;;;;5.18;1.15;;;;;;;;;;5084167;28;20196;-68
2022/09/19 10:41:31;;;;;;;7.80;1.52;;;;;;;;;;5083770;28;20196;-68
2022/09/19 10:43:59;;;;;;;3.80;1.45;;;;;;;;;;5083530;28;20196;-68
2022/09/19 10:46:35;;;;;;;5.72;1.35;;;;;;;;;;5083990;28;20200;-68
2022/09/19 10:49:02;;;;;;;3.92;1.33;;;;;;;;;;5083808;28;20202;-68
2022/09/19 10:51:31;;;;;;;6.85;1.77;;;;;;;;;;5083738;28;20196;-68
2022/09/19 10:53:57;;;;;;;5.43;1.63;;;;;;;;;;5083241;28;20291;-67
2022/09/19 10:56:26;;;;;;;3.25;1.00;;;;;;;;;;5083470;28;20204;-68
2022/09/19 10:58:59;;;;;;;3.50;1.63;;;;;;;;;;5083759;28;20242;-68
2022/09/19 11:01:25;;;;;;;9.52;1.70;;;;;;;;;;5083779;28;20185;-68
2022/09/19 11:04:02;;;;;;;3.88;1.13;;;;;;;;;;5083251;28;20283;-68
2022/09/19 11:06:29;;;;;;;2.90;1.10;;;;;;;;;;5083094;28;20257;-68
2022/09/19 11:08:56;;;;;;;8.23;1.60;;;;;;;;;;5083574;28;20523;-68
2022/09/19 11:11:32;;;;;;;3.00;1.30;;;;;;;;;;5083459;28;20267;-68
2022/09/19 11:14:15;;;;;;;5.35;1.20;;;;;;;;;;5082173;28;20287;-67
2022/09/19 11:16:43;;;;;;;4.70;2.60;;;;;;;;;;5082882;28;20216;-68
2022/09/19 11:19:19;;;;;;;3.95;1.20;;;;;;;;;;5082932;28;20196;-68
2022/09/19 11:21:50;;;;;;;4.55;1.38;;;;;;;;;;5083038;28;20196;-68
2022/09/19 11:24:27;;;;;;;7.75;4.15;;;;;;;;;;5082562;28;20205;-68
2022/09/19 11:27:05;;;;;;;4.40;1.60;;;;;;;;;;5082718;28;20207;-68
2022/09/19 11:29:44;;;;;;;5.18;1.50;;;;;;;;;;5082773;28;20205;-68
2022/09/19 11:32:14;;;;;;;6.05;1.10;;;;;;;;;;5082470;28;20417;-68
2022/09/19 11:34:46;;;;;;;6.72;1.40;;;;;;;;;;5082583;28;20507;-68
2022/09/19 11:37:19;;;;;;;12.70;2.40;;;;;;;;;;5082500;28;20197;-68
2022/09/19 11:39:51;;;;;;;6.93;1.60;;;;;;;;;;5082843;28;20308;-68
2022/09/19 11:42:23;;;;;;;3.60;0.93;;;;;;;;;;5082208;28;20199;-68
2022/09/19 11:44:54;;;;;;;5.93;1.25;;;;;;;;;;5082814;28;20185;-68
2022/09/19 11:47:36;;;;;;;4.32;1.35;;;;;;;;;;5082343;28;20219;-68
2022/09/19 11:50:11;;;;;;;3.17;1.30;;;;;;;;;;5082394;28;20198;-68
2022/09/19 11:52:43;;;;;;;3.33;1.00;;;;;;;;;;5082534;28;20222;-68
2022/09/19 11:55:14;;;;;;;3.70;1.15;;;;;;;;;;5082337;28;20234;-68
2022/09/19 11:57:46;;;;;;;3.30;1.20;;;;;;;;;;5082586;28;20219;-69
2022/09/19 12:00:16;;;;;;;5.85;1.30;;;;;;;;;;5082253;28;20197;-68
2022/09/19 12:02:58;;;;;;;4.82;1.25;;;;;;;;;;5082208;28;20238;-68
2022/09/19 12:05:28;;;;;;;3.90;1.27;;;;;;;;;;5082229;28;20228;-68
2022/09/19 12:08:03;;;;;;;2.20;1.10;;;;;;;;;;5082254;28;20426;-68
2022/09/19 12:10:31;;;;;;;3.33;1.02;;;;;;;;;;5082384;28;20299;-68
2022/09/19 12:13:02;;;;;;;4.65;1.30;;;;;;;;;;5081778;28;20220;-68
2022/09/19 12:15:34;;;;;;;7.55;1.50;;;;;;;;;;5082238;28;20434;-68
2022/09/19 12:18:03;;;;;;;2.05;1.10;;;;;;;;;;5082021;28;20231;-68
2022/09/19 12:20:34;;;;;;;2.80;1.00;;;;;;;;;;5081904;28;20504;-68
2022/09/19 12:24:52;;;;;;;5.20;1.13;;;;;;;;;;5082014;28;20180;-68
2022/09/19 12:25:50;;;;;;;3.15;1.08;;;;;;;;;;5084715;28;20200;-68
2022/09/19 12:28:17;;;;;;;3.60;1.60;;;;;;;;;;5086168;28;20263;-68
2022/09/19 12:30:46;;;;;;;4.13;0.82;;;;;;;;;;5086113;28;20205;-68
2022/09/19 12:33:16;;;;;;;6.78;1.20;;;;;;;;;;5085981;28;20235;-68
2022/09/19 12:35:46;;;;;;;1.92;1.10;;;;;;;;;;5086262;28;20196;-68
2022/09/19 12:38:18;;;;;;;3.55;1.00;;;;;;;;;;5086092;28;20397;-68
2022/09/19 12:40:48;;;;;;;5.18;1.20;;;;;;;;;;5085988;28;20224;-68
2022/09/19 12:43:20;;;;;;;1.48;0.73;;;;;;;;;;5085634;28;20554;-68
2022/09/19 12:45:53;;;;;;;3.45;1.13;;;;;;;;;;5085607;28;20267;-68
2022/09/19 12:48:23;;;;;;;2.90;1.00;;;;;;;;;;5085601;28;20204;-68
2022/09/19 12:50:50;;;;;;;3.03;0.98;;;;;;;;;;5086244;28;20402;-68
2022/09/19 12:53:25;;;;;;;3.55;1.05;;;;;;;;;;5085485;28;20227;-68
2022/09/19 12:55:56;;;;;;;4.30;0.95;;;;;;;;;;5085401;28;20203;-68
2022/09/19 12:58:26;;;;;;;2.92;1.10;;;;;;;;;;5085613;28;20204;-68
2022/09/19 13:01:12;;;;;;;4.10;1.20;;;;;;;;;;5085890;28;20384;-68
2022/09/19 13:03:42;;;;;;;4.35;1.20;;;;;;;;;;5085368;28;20242;-68
2022/09/19 13:06:10;;;;;;;3.78;1.15;;;;;;;;;;5085383;28;20287;-68
2022/09/19 13:08:38;;;;;;;2.78;1.05;;;;;;;;;;5085627;28;20212;-68
2022/09/19 13:11:07;;;;;;;5.25;1.20;;;;;;;;;;5085491;28;20212;-68
2022/09/19 13:13:35;;;;;;;3.88;0.80;;;;;;;;;;5085213;28;20382;-68
2022/09/19 13:16:06;;;;;;;1.77;0.93;;;;;;;;;;5085366;28;20257;-68
2022/09/19 13:24:02;;;;;;;3.00;0.98;;;;;;;;;;5084848;28;20238;-68
2022/09/19 13:26:36;;;;;;;2.97;1.00;;;;;;;;;;5084926;28;20204;-68
2022/09/19 13:29:12;;;;;;;2.45;1.00;;;;;;;;;;5085154;28;20234;-68
2022/09/19 13:31:55;;;;;;;4.07;1.40;;;;;;;;;;5085242;28;20204;-68
2022/09/19 13:34:39;;;;;;;5.03;1.02;;;;;;;;;;5084653;28;20216;-68
2022/09/19 13:37:20;;;;;;;4.05;1.02;;;;;;;;;;5084559;28;20226;-68
2022/09/19 13:39:52;;;;;;;2.92;0.98;;;;;;;;;;5084596;28;20258;-68
2022/09/19 13:42:24;;;;;;;5.25;1.20;;;;;;;;;;5084779;28;20203;-68
2022/09/19 13:44:55;;;;;;;5.60;1.35;;;;;;;;;;5084930;28;20492;-68
2022/09/19 13:47:22;;;;;;;3.35;0.90;;;;;;;;;;5084710;28;20287;-68
2022/09/19 13:49:52;;;;;;;2.40;1.00;;;;;;;;;;5084745;28;20504;-68
2022/09/19 13:52:25;;;;;;;3.78;1.60;;;;;;;;;;5084377;28;20265;-68
2022/09/19 13:55:06;;;;;;;6.00;3.80;;;;;;;;;;5084888;28;20232;-68
2022/09/19 13:57:35;;;;;;;2.15;0.90;;;;;;;;;;5084697;28;20428;-68
2022/09/19 14:00:08;;;;;;;4.28;0.88;;;;;;;;;;5084520;28;20279;-68
2022/09/19 14:02:38;;;;;;;6.22;1.20;;;;;;;;;;5084202;28;20492;-68
2022/09/19 14:05:11;;;;;;;4.22;0.70;;;;;;;;;;5084484;28;20224;-68
2022/09/19 14:07:43;;;;;;;2.58;0.80;;;;;;;;;;5084343;28;20196;-68
2022/09/19 14:10:17;;;;;;;2.92;0.82;;;;;;;;;;5084221;28;20196;-68
2022/09/19 14:13:04;;;;;;;4.35;0.73;;;;;;;;;;5083934;28;20195;-68
2022/09/19 14:15:51;;;;;;;2.83;0.55;;;;;;;;;;5084405;28;20222;-68
2022/09/19 14:18:36;;;;;;;3.50;0.60;;;;;;;;;;5084316;28;20219;-68
2022/09/19 14:21:05;;;;;;;4.72;0.80;;;;;;;;;;5084069;28;20196;-68
2022/09/19 14:23:32;;;;;;;0.60;0.60;;;;;;;;;;5083746;28;20388;-68
2022/09/19 14:26:00;;;;;;;1.90;0.52;;;;;;;;;;5084160;28;20204;-68
2022/09/19 14:28:39;;;;;;;2.50;0.93;;;;;;;;;;5083973;28;20200;-68
2022/09/19 14:31:20;;;;;;;1.92;0.70;;;;;;;;;;5084053;28;20200;-68
2022/09/19 14:34:01;;;;;;;3.05;0.82;;;;;;;;;;5070662;28;20535;-68
2022/09/19 14:36:37;;;;;;;1.63;1.02;;;;;;;;;;5083928;28;20204;-68
2022/09/19 14:39:27;;;;;;;4.35;0.93;;;;;;;;;;5083762;28;20196;-68
2022/09/19 14:41:57;;;;;;;0.95;0.82;;;;;;;;;;5083708;28;20550;-68
2022/09/19 14:44:47;;;;;;;2.25;1.30;;;;;;;;;;5083306;28;20201;-68
2022/09/19 14:47:17;;;;;;;1.30;0.73;;;;;;;;;;5078524;28;20197;-68
2022/09/19 14:49:47;;;;;;;0.77;0.77;;;;;;;;;;5083619;28;20515;-68
2022/09/19 14:52:16;;;;;;;0.52;0.40;;;;;;;;;;5083368;28;20196;-68
2022/09/19 14:54:45;;;;;;;1.02;0.60;;;;;;;;;;5083240;28;20496;-68
2022/09/19 14:57:15;;;;;;;0.65;0.47;;;;;;;;;;5083533;28;20208;-68
2022/09/19 14:59:42;;;;;;;0.85;0.50;;;;;;;;;;5083495;28;20496;-68
2022/09/19 15:02:15;;;;;;;2.22;0.50;;;;;;;;;;5083157;28;20204;-68
2022/09/19 15:04:42;;;;;;;0.52;0.50;;;;;;;;;;5083345;28;20196;-68
2022/09/19 15:07:09;;;;;;;1.45;0.40;;;;;;;;;;5083145;28;20196;-68
2022/09/19 15:09:38;;;;;;;0.50;0.50;;;;;;;;;;5083041;28;20192;-68
2022/09/19 15:12:11;;;;;;;1.05;0.52;;;;;;;;;;5083060;28;20196;-68
2022/09/19 15:14:42;;;;;;;0.73;0.50;;;;;;;;;;5083047;28;20220;-68
2022/09/19 15:17:10;;;;;;;0.60;0.45;;;;;;;;;;5083125;28;20218;-68
2022/09/19 15:19:37;;;;;;;1.05;0.45;;;;;;;;;;5082728;28;20264;-68